Time;durP1;ratioP1;P1;durP2;ratioP2;P2;SDS_P1;SDS_P2;PMS_P1;PMS_P2;Temp;Humidity;BMP_temperature;BMP_pressure;BME280_temperature;BME280_humidity;BME280_pressure;Samples;Min_cycle;Max_cycle;Signal;HPM_P1;HPM_P2
2024/01/23 00:02:16;;;;;;;14.32;6.93;;;;;;;-142.57;74.11;56153.66;5005617;28;20034;-82
2024/01/23 00:04:51;;;;;;;17.30;7.00;;;;;;;-142.57;75.51;56052.63;5002756;28;20116;-83
2024/01/23 00:07:23;;;;;;;14.50;7.43;;;;;;;-142.57;75.34;56064.75;4985605;28;20030;-83
2024/01/23 00:09:54;;;;;;;14.02;7.00;;;;;;;-142.57;74.98;56084.94;4998916;28;20034;-81
2024/01/23 00:12:20;;;;;;;17.52;7.40;;;;;;;-142.57;74.07;56157.69;4986015;28;20062;-81
2024/01/23 00:15:05;;;;;;;18.73;7.57;;;;;;;-142.57;75.09;56076.88;4978781;28;20038;-82
2024/01/23 00:17:36;;;;;;;128.95;39.03;;;;;;;-142.57;74.65;56074.84;5008578;28;20026;-80
2024/01/23 00:20:10;;;;;;;28.98;10.85;;;;;;;-142.57;75.31;56089.00;4985574;28;20101;-81
2024/01/23 00:22:45;;;;;;;16.85;7.43;;;;;;;-142.57;77.81;56052.63;5004627;28;20380;-82
2024/01/23 00:25:18;;;;;;;16.27;7.75;;;;;;;-142.57;78.30;56044.53;4978483;28;20052;-82
2024/01/23 00:28:06;;;;;;;22.52;10.25;;;;;;;-142.57;77.80;56048.56;4987441;28;20038;-81
2024/01/23 00:30:45;;;;;;;16.85;7.53;;;;;;;-142.57;77.09;56072.81;4919542;29;20044;-82
2024/01/23 00:33:13;;;;;;;19.00;8.38;;;;;;;-142.57;76.79;56097.06;4917162;29;20485;-80
2024/01/23 00:35:42;;;;;;;24.67;10.00;;;;;;;-142.57;76.65;56141.53;4933834;29;20047;-82
2024/01/23 00:38:07;;;;;;;20.60;9.65;;;;;;;-142.57;76.16;56113.25;4944219;29;20052;-85
2024/01/23 00:40:33;;;;;;;18.63;8.73;;;;;;;-142.57;76.28;56113.25;4937257;29;20047;-86
2024/01/23 00:42:59;;;;;;;19.20;9.18;;;;;;;-142.57;75.76;56153.66;4935331;29;20055;-85
2024/01/23 00:45:25;;;;;;;30.15;11.65;;;;;;;-142.57;75.84;56141.53;4934518;29;20478;-83
2024/01/23 00:47:50;;;;;;;27.20;11.90;;;;;;;-142.57;75.81;56113.25;4934068;29;20576;-85
2024/01/23 00:50:16;;;;;;;27.10;10.65;;;;;;;-142.57;76.69;56107.19;4939873;29;20122;-83
2024/01/23 00:53:00;;;;;;;25.05;10.77;;;;;;;-142.57;78.08;56103.13;4954316;29;20560;-86
2024/01/23 00:55:35;;;;;;;24.02;11.07;;;;;;;-142.57;78.49;56076.88;4993408;23;20028;-83
2024/01/23 00:58:07;;;;;;;24.92;11.48;;;;;;;-142.57;78.88;56095.06;5008823;28;20041;-82
2024/01/23 01:00:44;;;;;;;20.20;10.05;;;;;;;-142.57;79.45;56078.88;5035839;28;20069;-82
2024/01/23 01:03:11;;;;;;;23.70;10.23;;;;;;;-142.57;81.51;56014.22;5034801;28;20038;-84
2024/01/23 01:05:43;;;;;;;20.77;11.02;;;;;;;-142.57;81.63;56024.31;5036156;28;20388;-81
2024/01/23 01:08:20;;;;;;;17.33;10.03;;;;;;;-142.57;81.86;56016.25;5015682;28;20097;-86
2024/01/23 01:11:10;;;;;;;18.55;10.35;;;;;;;-142.57;82.85;56028.38;5038585;28;20304;-86
2024/01/23 01:13:35;;;;;;;24.67;10.35;;;;;;;-142.57;84.18;56012.19;5048285;28;20049;-87
2024/01/23 01:16:01;;;;;;;19.02;9.77;;;;;;;-142.57;83.66;56054.63;5032275;28;20391;-85
2024/01/23 01:18:27;;;;;;;22.08;9.95;;;;;;;-142.57;84.11;56032.41;5032441;28;20036;-87
2024/01/23 01:20:55;;;;;;;20.60;10.45;;;;;;;-142.57;84.36;56026.34;5031513;28;20100;-85
2024/01/23 01:23:21;;;;;;;24.25;10.60;;;;;;;-142.57;84.11;56070.81;5034261;28;20033;-85
2024/01/23 01:25:47;;;;;;;21.30;9.95;;;;;;;-142.57;83.60;56068.78;5033682;28;20045;-85
2024/01/23 01:28:15;;;;;;;20.08;9.85;;;;;;;-142.57;82.88;56080.91;5010912;28;20037;-84
2024/01/23 01:30:43;;;;;;;20.00;10.48;;;;;;;-142.57;84.87;56018.25;5033170;28;20561;-86
2024/01/23 01:33:09;;;;;;;20.98;10.43;;;;;;;-142.57;86.93;56016.25;5032013;28;20029;-86
2024/01/23 01:35:35;;;;;;;26.42;11.00;;;;;;;-142.57;86.76;55983.91;5034969;28;20075;-85
2024/01/23 01:38:01;;;;;;;21.58;10.70;;;;;;;-142.57;88.27;55931.38;5034698;28;20033;-84
2024/01/23 01:40:27;;;;;;;19.10;10.52;;;;;;;-142.57;94.11;55860.66;5034697;28;20487;-87
2024/01/23 01:42:53;;;;;;;21.85;10.10;;;;;;;-142.57;100.00;55854.59;5032574;28;20032;-85
2024/01/23 01:45:18;;;;;;;20.08;10.05;;;;;;;-142.57;100.00;55846.50;5031803;28;20025;-86
2024/01/23 01:47:46;;;;;;;23.15;10.15;;;;;;;-142.57;100.00;55818.22;5021734;28;20033;-86
2024/01/23 01:50:13;;;;;;;24.75;10.43;;;;;;;-142.57;100.00;55834.38;5030987;28;20057;-85
2024/01/23 01:52:41;;;;;;;26.48;10.52;;;;;;;-142.57;100.00;55826.31;5035292;28;20056;-87
2024/01/23 01:55:09;;;;;;;22.02;11.95;;;;;;;-142.57;100.00;55806.09;5030983;28;20017;-84
2024/01/23 01:57:47;;;;;;;25.60;13.60;;;;;;;-142.57;100.00;55802.06;5028767;28;20038;-85
2024/01/23 02:00:13;;;;;;;21.63;12.90;;;;;;;-142.57;100.00;55818.22;5015293;28;20050;-86
2024/01/23 02:02:42;;;;;;;26.30;13.82;;;;;;;-142.57;100.00;55781.84;5042674;28;20129;-85
2024/01/23 02:05:08;;;;;;;23.63;14.20;;;;;;;-142.57;100.00;55806.09;5018976;28;20038;-87
2024/01/23 02:07:34;;;;;;;25.13;13.55;;;;;;;-142.57;100.00;55787.91;5033941;28;20029;-86
2024/01/23 02:10:00;;;;;;;31.38;15.07;;;;;;;-142.57;100.00;55779.84;5031773;28;20053;-85
2024/01/23 02:12:26;;;;;;;32.35;14.20;;;;;;;-142.57;100.00;55834.38;5033562;28;20168;-86
2024/01/23 02:14:51;;;;;;;25.92;14.55;;;;;;;-142.57;100.00;55765.69;5031293;28;20064;-86
2024/01/23 02:17:17;;;;;;;28.65;15.60;;;;;;;-142.57;100.00;55771.75;5034914;28;20037;-85
2024/01/23 02:19:46;;;;;;;35.95;16.80;;;;;;;-142.57;100.00;55812.16;5048482;28;20033;-84
2024/01/23 02:22:12;;;;;;;39.78;18.63;;;;;;;-142.57;100.00;55779.84;5015399;28;20040;-86
2024/01/23 02:25:03;;;;;;;33.50;17.70;;;;;;;-142.57;100.00;55741.44;5035639;28;20076;-86
2024/01/23 02:27:30;;;;;;;30.88;16.00;;;;;;;-142.57;100.00;55737.41;5047514;28;20034;-84
2024/01/23 02:29:56;;;;;;;30.58;16.52;;;;;;;-142.57;100.00;55802.06;5059696;28;20057;-85
2024/01/23 02:32:28;;;;;;;32.85;17.02;;;;;;;-142.57;100.00;55745.47;5058048;28;20022;-86
2024/01/23 02:39:19;;;;;;;35.47;18.38;;;;;;;-142.57;100.00;55757.59;5061093;28;20044;-83
2024/01/23 02:41:50;;;;;;;32.53;16.73;;;;;;;-142.57;100.00;55723.25;5041444;28;20049;-84
2024/01/23 02:44:21;;;;;;;33.88;17.10;;;;;;;-142.57;100.00;55709.09;5041788;28;20022;-84
2024/01/23 02:46:52;;;;;;;31.35;16.55;;;;;;;-142.57;100.00;55705.06;5046542;28;20098;-85
2024/01/23 02:49:25;;;;;;;31.88;16.77;;;;;;;-142.57;100.00;55682.84;5057312;28;20045;-82
2024/01/23 02:55:38;;;;;;;34.95;17.13;;;;;;;-142.57;100.00;55658.59;5054867;28;20048;-84
2024/01/23 02:58:04;;;;;;;36.40;17.65;;;;;;;-142.57;100.00;55668.69;5057848;28;20037;-83
2024/01/23 03:00:30;;;;;;;30.95;16.38;;;;;;;-142.57;100.00;55668.69;5048898;28;20084;-83
2024/01/23 03:02:56;;;;;;;36.13;17.60;;;;;;;-142.57;100.00;55640.41;5058924;28;20041;-84
2024/01/23 03:05:23;;;;;;;31.90;17.35;;;;;;;-142.57;100.00;55672.75;5058986;28;20088;-83
2024/01/23 03:07:50;;;;;;;31.50;17.42;;;;;;;-142.57;100.00;55690.94;5058941;28;20049;-84
2024/01/23 03:10:16;;;;;;;33.80;17.98;;;;;;;-142.57;100.00;55642.44;5049090;28;20037;-82
2024/01/23 03:12:46;;;;;;;42.92;17.65;;;;;;;-142.57;100.00;55707.09;5037762;28;20084;-85
2024/01/23 03:15:12;;;;;;;34.17;16.85;;;;;;;-142.57;100.00;55703.06;5040232;28;20034;-84
2024/01/23 03:17:43;;;;;;;28.65;16.58;;;;;;;-142.57;100.00;55715.16;5037362;28;20310;-84
2024/01/23 03:20:11;;;;;;;32.38;16.50;;;;;;;-142.57;100.00;55703.06;5038532;28;20397;-85
2024/01/23 03:22:37;;;;;;;39.60;17.38;;;;;;;-142.57;100.00;55697.00;5037401;28;20072;-85
2024/01/23 03:25:03;;;;;;;34.38;17.65;;;;;;;-142.57;100.00;55654.56;5043211;28;20037;-83
2024/01/23 03:27:28;;;;;;;32.83;17.33;;;;;;;-142.57;100.00;55713.16;5036134;28;20118;-83
2024/01/23 03:29:54;;;;;;;38.38;18.17;;;;;;;-142.57;100.00;55646.47;5030970;28;20037;-84
2024/01/23 03:32:22;;;;;;;40.30;20.95;;;;;;;-142.57;100.00;55614.16;5035718;28;20042;-85
2024/01/23 03:34:49;;;;;;;38.38;18.88;;;;;;;-142.57;100.00;55559.59;5036878;28;20063;-84
2024/01/23 03:37:15;;;;;;;39.33;21.55;;;;;;;-142.57;100.00;55583.84;5035247;28;20041;-85
2024/01/23 03:39:41;;;;;;;42.22;20.65;;;;;;;-142.57;100.00;55585.84;5036370;28;20116;-83
2024/01/23 03:42:07;;;;;;;31.50;16.77;;;;;;;-142.57;100.00;55539.38;5035435;28;20119;-83
2024/01/23 03:44:33;;;;;;;32.45;17.08;;;;;;;-142.57;100.00;55543.44;5038688;28;20459;-84
2024/01/23 03:46:58;;;;;;;35.25;16.92;;;;;;;-142.57;100.00;55555.56;5035091;28;20038;-84
2024/01/23 03:49:24;;;;;;;30.88;15.75;;;;;;;-142.57;100.00;55606.06;5034718;28;20033;-83
2024/01/23 03:51:50;;;;;;;33.97;15.63;;;;;;;-142.57;100.00;55551.50;5036516;28;20037;-82
2024/01/23 03:54:16;;;;;;;31.15;16.38;;;;;;;-142.57;100.00;55519.19;5030495;28;20028;-84
2024/01/23 03:56:42;;;;;;;28.77;15.43;;;;;;;-142.57;100.00;55531.31;5028219;28;20030;-81
2024/01/23 03:59:08;;;;;;;28.67;15.05;;;;;;;-142.57;100.00;55498.97;5035023;28;20049;-84
2024/01/23 04:01:34;;;;;;;29.00;15.40;;;;;;;-142.57;100.00;55535.34;5034706;28;20040;-84
2024/01/23 04:04:00;;;;;;;28.20;15.43;;;;;;;-142.57;100.00;55460.59;5039592;28;20037;-83
2024/01/23 04:06:26;;;;;;;28.63;14.05;;;;;;;-142.57;100.00;55492.91;5033179;28;20034;-86
2024/01/23 04:08:51;;;;;;;29.77;14.98;;;;;;;-142.57;100.00;55486.84;5016487;28;20041;-86
2024/01/23 04:11:17;;;;;;;30.58;15.45;;;;;;;-142.57;100.00;55450.50;5035891;28;20029;-84
2024/01/23 04:13:42;;;;;;;35.70;17.67;;;;;;;-142.57;100.00;55466.66;5033131;28;20037;-83
2024/01/23 04:16:09;;;;;;;35.97;16.42;;;;;;;-142.57;100.00;55456.56;5035204;28;20486;-84
2024/01/23 04:18:38;;;;;;;42.35;17.08;;;;;;;-142.57;100.00;55507.06;5035736;28;20042;-84
2024/01/23 04:21:06;;;;;;;47.72;19.15;;;;;;;-142.57;100.00;55515.16;5030083;28;20071;-82
2024/01/23 04:23:31;;;;;;;39.65;18.17;;;;;;;-142.57;100.00;55539.38;5029614;28;20064;-85
2024/01/23 04:25:57;;;;;;;40.38;18.65;;;;;;;-142.57;100.00;55503.03;5034720;28;20475;-85
2024/01/23 04:28:23;;;;;;;30.23;17.48;;;;;;;-142.57;100.00;55543.44;5024471;28;21413;-83
2024/01/23 04:30:52;;;;;;;34.97;17.23;;;;;;;-142.57;100.00;55529.28;5035119;28;20041;-86
2024/01/23 04:33:21;;;;;;;38.13;17.95;;;;;;;-142.57;100.00;55567.69;5033659;28;20030;-84
2024/01/23 04:35:47;;;;;;;36.67;18.77;;;;;;;-142.57;100.00;55563.63;5035464;28;20451;-85
2024/01/23 04:38:14;;;;;;;36.88;18.02;;;;;;;-142.57;100.00;55624.25;5032270;28;20041;-84
2024/01/23 04:40:39;;;;;;;37.35;18.15;;;;;;;-142.57;100.00;55575.75;5035788;28;20029;-83
2024/01/23 04:43:05;;;;;;;37.50;17.77;;;;;;;-142.57;100.00;55575.75;5033390;28;20410;-85
2024/01/23 04:45:31;;;;;;;35.22;17.48;;;;;;;-142.57;100.00;55551.50;5036131;28;20033;-84
2024/01/23 04:47:56;;;;;;;36.65;17.70;;;;;;;-142.57;100.00;55519.19;5030669;28;20065;-84
2024/01/23 04:50:22;;;;;;;35.03;17.73;;;;;;;-142.57;100.00;55587.88;5036014;28;20462;-83
2024/01/23 04:52:47;;;;;;;37.15;18.30;;;;;;;-142.57;100.00;55579.81;5033703;28;20474;-83
2024/01/23 04:55:13;;;;;;;30.38;16.17;;;;;;;-142.57;100.00;55608.09;5032956;28;20038;-83
2024/01/23 04:57:38;;;;;;;34.85;17.92;;;;;;;-142.57;100.00;55551.50;5032584;28;20037;-84
2024/01/23 05:00:05;;;;;;;36.35;17.92;;;;;;;-142.57;100.00;55507.06;5035177;28;20026;-88
2024/01/23 05:02:31;;;;;;;33.30;17.88;;;;;;;-142.57;100.00;55519.19;5035237;28;20112;-84
2024/01/23 05:04:59;;;;;;;32.92;16.58;;;;;;;-142.57;100.00;55523.22;5035326;28;20552;-84
2024/01/23 05:07:25;;;;;;;31.70;15.32;;;;;;;-142.57;100.00;55458.56;5034701;28;20037;-86
2024/01/23 05:09:51;;;;;;;32.55;16.13;;;;;;;-142.57;100.00;55470.69;5035488;28;20031;-84
2024/01/23 05:12:16;;;;;;;51.00;22.80;;;;;;;-142.57;100.00;55478.78;5028076;28;20052;-81
2024/01/23 05:14:42;;;;;;;40.22;21.00;;;;;;;-142.57;100.00;55472.72;5017303;28;20038;-84
2024/01/23 05:17:08;;;;;;;32.00;18.33;;;;;;;-142.57;100.00;55488.88;5016979;28;20030;-80
2024/01/23 05:19:34;;;;;;;35.45;17.35;;;;;;;-142.57;100.00;55460.59;5030239;28;20025;-86
2024/01/23 05:22:00;;;;;;;32.33;16.85;;;;;;;-142.57;100.00;55440.38;5042749;28;20038;-84
2024/01/23 05:24:27;;;;;;;34.47;17.40;;;;;;;-142.57;100.00;55452.50;5039234;28;20022;-83
2024/01/23 05:26:52;;;;;;;32.72;17.23;;;;;;;-142.57;100.00;55450.50;5049471;28;20056;-88
2024/01/23 05:29:18;;;;;;;31.13;17.98;;;;;;;-142.57;100.00;55361.59;5035987;28;20533;-84
2024/01/23 05:31:47;;;;;;;33.88;18.10;;;;;;;-142.57;100.00;55404.03;5028162;28;20483;-91
2024/01/23 05:34:12;;;;;;;42.15;18.80;;;;;;;-142.57;100.00;55454.53;5022773;28;20045;-88
2024/01/23 05:36:38;;;;;;;39.80;19.75;;;;;;;-142.57;100.00;55399.97;5018819;28;20038;-83
2024/01/23 05:39:04;;;;;;;40.65;18.95;;;;;;;-142.57;100.00;55412.09;5036748;28;20438;-78
2024/01/23 05:41:30;;;;;;;39.97;19.58;;;;;;;-142.57;100.00;55406.03;5019886;28;20087;-83
2024/01/23 05:43:57;;;;;;;45.22;21.33;;;;;;;-142.57;100.00;55381.81;5028297;28;20050;-79
2024/01/23 05:46:28;;;;;;;39.65;19.33;;;;;;;-142.57;100.00;55377.75;5032482;28;20026;-80
2024/01/23 05:48:54;;;;;;;36.08;18.05;;;;;;;-142.57;100.00;55363.63;5034143;28;20102;-79
2024/01/23 05:51:20;;;;;;;37.47;19.20;;;;;;;-142.57;100.00;55357.56;5038929;28;20132;-80
2024/01/23 05:53:46;;;;;;;40.53;19.15;;;;;;;-142.57;100.00;55381.81;5034658;28;20045;-80
2024/01/23 05:56:11;;;;;;;40.70;19.10;;;;;;;-142.57;100.00;55349.47;5027375;28;20042;-80
2024/01/23 05:58:37;;;;;;;37.80;18.73;;;;;;;-142.57;100.00;55389.88;5035252;28;20072;-83
2024/01/23 06:01:03;;;;;;;37.42;19.23;;;;;;;-142.57;100.00;55345.44;5030754;28;20588;-82
2024/01/23 06:03:28;;;;;;;35.97;19.27;;;;;;;-142.57;100.00;55345.44;5035595;28;20119;-84
2024/01/23 06:05:54;;;;;;;40.50;19.48;;;;;;;-142.57;100.00;55337.34;5034278;28;20116;-80
2024/01/23 06:08:19;;;;;;;36.58;18.45;;;;;;;-142.57;100.00;55353.50;5033788;28;20030;-80
2024/01/23 06:10:45;;;;;;;36.10;20.23;;;;;;;-142.57;100.00;55369.69;5037672;28;20060;-85
2024/01/23 06:13:10;;;;;;;40.33;19.75;;;;;;;-142.57;100.00;55355.53;5033776;28;20057;-86
2024/01/23 06:15:36;;;;;;;43.22;17.90;;;;;;;-142.57;100.00;55351.50;5030636;28;20121;-79
2024/01/23 06:18:03;;;;;;;48.45;23.25;;;;;;;-142.57;100.00;55379.78;5034669;28;20196;-86
2024/01/23 06:20:29;;;;;;;33.17;18.20;;;;;;;-142.57;100.00;55393.91;5033679;28;20029;-84
2024/01/23 06:22:57;;;;;;;35.78;17.40;;;;;;;-142.57;100.00;55377.75;5032504;28;20034;-88
2024/01/23 06:25:26;;;;;;;37.30;17.52;;;;;;;-142.57;100.00;55371.69;5035026;28;20426;-86
2024/01/23 06:27:51;;;;;;;36.45;17.52;;;;;;;-142.57;100.00;55373.72;5033627;28;20416;-82
2024/01/23 06:30:17;;;;;;;69.82;28.10;;;;;;;-142.57;100.00;55381.81;5032884;28;20032;-85
2024/01/23 06:32:43;;;;;;;64.07;26.38;;;;;;;-142.57;100.00;55365.63;5032979;28;20033;-84
2024/01/23 06:35:10;;;;;;;61.45;24.35;;;;;;;-142.57;100.00;55375.75;5035623;28;20075;-82
2024/01/23 06:37:38;;;;;;;67.55;27.77;;;;;;;-142.57;100.00;55361.59;5023220;28;20046;-91
2024/01/23 06:40:04;;;;;;;69.00;28.40;;;;;;;-142.57;100.00;55339.38;5036351;28;20029;-85
2024/01/23 06:42:31;;;;;;;64.90;25.80;;;;;;;-142.57;100.00;55353.50;5034876;28;20033;-87
2024/01/23 06:44:57;;;;;;;38.30;20.35;;;;;;;-142.57;100.00;55357.56;5035781;28;20034;-86
2024/01/23 06:47:23;;;;;;;41.70;22.70;;;;;;;-142.57;100.00;55347.44;5035843;28;20513;-87
2024/01/23 06:49:49;;;;;;;42.72;22.33;;;;;;;-142.57;100.00;55353.50;5027836;28;20116;-84
2024/01/23 06:52:15;;;;;;;44.55;20.95;;;;;;;-142.57;100.00;55393.91;5032020;28;20390;-83
2024/01/23 06:54:41;;;;;;;94.32;24.02;;;;;;;-142.57;100.00;55426.25;5035022;28;20061;-86
2024/01/23 06:57:06;;;;;;;48.85;23.10;;;;;;;-142.57;100.00;55432.31;5033003;28;20482;-84
2024/01/23 06:59:32;;;;;;;58.83;25.50;;;;;;;-142.57;100.00;55442.41;5036024;28;20033;-89
2024/01/23 07:01:58;;;;;;;82.32;24.23;;;;;;;-142.57;100.00;55456.56;5034436;28;20037;-84
2024/01/23 07:04:24;;;;;;;55.75;20.42;;;;;;;-142.57;100.00;55472.72;5036022;28;20049;-83
2024/01/23 07:06:49;;;;;;;36.08;18.33;;;;;;;-142.57;100.00;55462.63;5034481;28;20052;-85
2024/01/23 07:09:15;;;;;;;83.60;27.42;;;;;;;-142.57;100.00;55523.22;5036322;28;20034;-81
2024/01/23 07:11:41;;;;;;;50.28;22.75;;;;;;;-142.57;100.00;55490.91;5029999;28;20029;-81
2024/01/23 07:14:10;;;;;;;88.00;22.40;;;;;;;-142.57;100.00;55521.22;5031746;28;20061;-78
2024/01/23 07:16:35;;;;;;;121.85;25.52;;;;;;;-142.57;100.00;55551.50;5016514;28;20080;-79
2024/01/23 07:19:01;;;;;;;46.38;20.70;;;;;;;-142.57;100.00;55573.75;5016487;28;20038;-84
2024/01/23 07:21:26;;;;;;;132.38;25.38;;;;;;;-142.57;100.00;55626.28;5016150;28;20064;-83
2024/01/23 07:23:52;;;;;;;108.93;22.80;;;;;;;-142.57;100.00;55717.19;5014597;28;20121;-83
2024/01/23 07:26:18;;;;;;;80.55;20.77;;;;;;;-142.57;100.00;55769.72;5016453;28;20050;-85
2024/01/23 07:28:44;;;;;;;98.13;21.15;;;;;;;-142.57;100.00;55810.13;5033387;28;20117;-83
2024/01/23 07:31:11;;;;;;;42.50;18.52;;;;;;;-142.57;100.00;55814.19;5037260;28;20057;-84
2024/01/23 07:33:38;;;;;;;49.08;19.25;;;;;;;-142.57;100.00;55711.13;5033796;28;20038;-85
2024/01/23 07:36:04;;;;;;;44.38;18.63;;;;;;;-142.57;100.00;55759.63;4999020;28;20064;-82
2024/01/23 07:38:30;;;;;;;119.65;22.13;;;;;;;-142.57;100.00;55749.53;5015681;28;20477;-81
2024/01/23 07:40:55;;;;;;;74.57;21.63;;;;;;;-142.57;100.00;55850.56;5026737;28;20029;-83
2024/01/23 07:43:27;;;;;;;47.58;22.23;;;;;;;-142.57;100.00;55806.09;5016455;28;20046;-83
2024/01/23 07:45:53;;;;;;;70.03;16.88;;;;;;;-142.57;100.00;55915.22;5015310;28;20492;-81
2024/01/23 07:48:19;;;;;;;56.38;20.98;;;;;;;-142.57;100.00;55975.84;5033557;28;20033;-80
2024/01/23 07:50:45;;;;;;;61.53;20.58;;;;;;;-142.57;100.00;55967.75;5034881;28;20029;-82
2024/01/23 07:53:10;;;;;;;62.47;20.10;;;;;;;-142.57;100.00;56032.41;5035022;28;20371;-81
2024/01/23 07:55:36;;;;;;;139.48;24.92;;;;;;;-142.57;100.00;56228.41;5025169;28;20062;-80
2024/01/23 07:58:02;;;;;;;179.73;34.88;;;;;;;-142.57;100.00;56287.03;5028528;28;20498;-83
2024/01/23 08:00:28;;;;;;;39.45;18.20;;;;;;;-142.57;100.00;56234.47;5034508;28;20030;-81
2024/01/23 08:02:53;;;;;;;59.50;20.27;;;;;;;-142.57;94.07;56501.25;5021514;28;20129;-81
2024/01/23 08:05:19;;;;;;;62.97;20.65;;;;;;;-142.57;85.18;56646.75;5032800;28;20124;-80
2024/01/23 08:07:44;;;;;;;39.90;19.77;;;;;;;-142.57;88.63;56400.19;5029124;28;20048;-82
2024/01/23 08:10:10;;;;;;;74.28;22.52;;;;;;;-142.57;90.89;56400.19;5034443;28;20029;-82
2024/01/23 08:12:36;;;;;;;42.58;20.08;;;;;;;-142.57;89.83;56434.56;5035143;28;20064;-84
2024/01/23 08:15:02;;;;;;;35.08;19.25;;;;;;;-142.57;86.26;56493.16;5035104;28;20171;-82
2024/01/23 08:17:28;;;;;;;48.17;20.58;;;;;;;-142.57;86.85;56396.16;5033642;28;20152;-81
2024/01/23 08:19:53;;;;;;;57.42;21.92;;;;;;;-142.57;92.60;56210.22;5033925;28;20066;-82
2024/01/23 08:22:19;;;;;;;50.85;20.05;;;;;;;-142.57;91.81;56194.06;5022599;28;20551;-83
2024/01/23 08:24:45;;;;;;;40.88;20.20;;;;;;;-142.57;96.60;56127.38;5015109;28;20034;-84
2024/01/23 08:27:10;;;;;;;49.35;20.60;;;;;;;-142.57;93.77;56080.91;5020467;28;20029;-86
2024/01/23 08:29:36;;;;;;;51.60;22.10;;;;;;;-142.57;100.00;56016.25;5035298;28;20467;-84
2024/01/23 08:32:03;;;;;;;46.78;21.75;;;;;;;-142.57;100.00;55927.34;5034905;28;20063;-83
2024/01/23 08:34:30;;;;;;;40.88;22.30;;;;;;;-142.57;100.00;55915.22;5034373;28;20451;-79
2024/01/23 08:36:56;;;;;;;44.33;22.38;;;;;;;-142.57;100.00;55892.97;5031299;28;20125;-78
2024/01/23 08:39:22;;;;;;;40.92;20.48;;;;;;;-142.57;100.00;55907.13;5033719;28;20025;-81
2024/01/23 08:41:48;;;;;;;39.92;21.52;;;;;;;-142.57;100.00;55923.28;5035747;28;20042;-80
2024/01/23 08:44:14;;;;;;;36.65;21.23;;;;;;;-142.57;100.00;55947.53;5035753;28;20127;-81
2024/01/23 08:46:39;;;;;;;41.85;22.35;;;;;;;-142.57;100.00;56000.06;5034851;28;20041;-81
2024/01/23 08:49:05;;;;;;;43.50;22.05;;;;;;;-142.57;100.00;56004.13;5035740;28;20029;-81
2024/01/23 08:51:30;;;;;;;39.83;22.40;;;;;;;-142.57;100.00;55917.22;5031139;28;20042;-80
2024/01/23 08:53:56;;;;;;;43.28;23.00;;;;;;;-142.57;100.00;55901.06;5014169;28;20034;-81
2024/01/23 08:56:23;;;;;;;40.90;21.63;;;;;;;-142.57;100.00;55846.50;5013698;28;20380;-80
2024/01/23 08:58:52;;;;;;;38.90;21.90;;;;;;;-142.57;100.00;55866.72;5014418;28;20491;-80
2024/01/23 09:01:17;;;;;;;45.20;22.95;;;;;;;-142.57;100.00;55878.84;5017048;28;20061;-80
2024/01/23 09:03:43;;;;;;;131.88;24.65;;;;;;;-142.57;100.00;55870.75;5013781;28;20483;-81
2024/01/23 09:06:10;;;;;;;41.00;21.48;;;;;;;-142.57;100.00;55939.47;5013580;28;20092;-80
2024/01/23 09:08:36;;;;;;;38.50;22.02;;;;;;;-142.57;100.00;55943.50;5015536;28;20026;-80
2024/01/23 09:11:02;;;;;;;40.88;22.33;;;;;;;-142.57;100.00;55943.50;5015015;28;20534;-80
2024/01/23 09:13:31;;;;;;;40.92;22.17;;;;;;;-142.57;100.00;55935.41;5024904;28;20029;-80
2024/01/23 09:16:01;;;;;;;43.53;21.35;;;;;;;-142.57;100.00;55917.22;5013806;28;20033;-79
2024/01/23 09:18:30;;;;;;;38.38;22.00;;;;;;;-142.57;100.00;55864.69;5014051;28;20068;-80
2024/01/23 09:21:02;;;;;;;38.80;21.40;;;;;;;-142.57;100.00;55941.47;5014108;28;20112;-79
2024/01/23 09:23:29;;;;;;;67.90;22.42;;;;;;;-142.57;100.00;55961.69;5028572;28;20073;-80
2024/01/23 09:25:58;;;;;;;38.38;21.35;;;;;;;-142.57;100.00;55915.22;5032290;28;20022;-79
2024/01/23 09:28:24;;;;;;;38.60;20.85;;;;;;;-142.57;100.00;55959.66;5019077;28;20037;-84
2024/01/23 09:30:54;;;;;;;40.05;21.15;;;;;;;-142.57;100.00;55943.50;5013683;28;20030;-81
2024/01/23 09:33:20;;;;;;;38.63;21.85;;;;;;;-142.57;100.00;55953.59;5013072;28;20045;-79
2024/01/23 09:35:53;;;;;;;76.47;23.80;;;;;;;-142.57;98.19;55967.75;5014117;28;20034;-80
2024/01/23 09:38:19;;;;;;;52.88;22.92;;;;;;;-142.57;97.17;56018.25;5013662;28;20089;-80
2024/01/23 09:40:49;;;;;;;37.80;21.40;;;;;;;-142.57;89.97;56020.28;5021547;28;20478;-79
2024/01/23 09:43:19;;;;;;;48.55;21.58;;;;;;;-142.57;84.32;56040.50;5032409;28;20044;-81
2024/01/23 09:45:47;;;;;;;40.00;21.80;;;;;;;-142.57;82.81;56020.28;5033131;28;20498;-79
2024/01/23 09:48:14;;;;;;;45.53;22.45;;;;;;;-142.57;85.28;56024.31;5018956;28;20487;-79
2024/01/23 09:50:41;;;;;;;46.42;22.27;;;;;;;-142.57;83.81;56046.56;5027577;28;20036;-83
2024/01/23 09:53:09;;;;;;;40.97;22.73;;;;;;;-142.57;80.91;56133.44;5032701;28;20134;-78
2024/01/23 09:55:35;;;;;;;39.00;22.10;;;;;;;-142.57;82.39;56093.03;5032304;28;20053;-79
2024/01/23 09:58:03;;;;;;;58.55;23.13;;;;;;;-142.57;82.74;56080.91;5032471;28;20447;-79
2024/01/23 10:00:29;;;;;;;118.55;26.50;;;;;;;-142.57;82.84;56099.09;5032546;28;20037;-79
2024/01/23 10:02:55;;;;;;;58.63;22.55;;;;;;;-142.57;84.77;55996.03;5024636;28;20048;-79
2024/01/23 10:05:22;;;;;;;58.28;24.73;;;;;;;-142.57;85.92;55992.00;5012883;28;20479;-79
2024/01/23 10:07:48;;;;;;;56.90;22.48;;;;;;;-142.57;85.59;56004.13;5012718;28;20038;-79
2024/01/23 10:10:17;;;;;;;113.25;27.45;;;;;;;-142.57;85.92;56006.13;5012779;28;20033;-77
2024/01/23 10:12:50;;;;;;;101.35;25.27;;;;;;;-142.57;85.80;56050.59;5012858;28;20104;-79
2024/01/23 10:15:18;;;;;;;42.70;22.30;;;;;;;-142.57;82.93;56040.50;5021868;28;20045;-77
2024/01/23 10:17:45;;;;;;;139.18;27.38;;;;;;;-142.57;83.11;56048.56;5032376;28;20029;-79
2024/01/23 10:20:11;;;;;;;100.13;26.73;;;;;;;-142.57;83.87;56121.31;5032345;28;20474;-79
2024/01/23 10:22:37;;;;;;;80.85;25.67;;;;;;;-142.57;81.28;56097.06;5032492;28;20386;-77
2024/01/23 10:25:06;;;;;;;54.13;22.83;;;;;;;-142.57;79.88;56064.75;5032298;28;20078;-79
2024/01/23 10:27:32;;;;;;;137.07;26.50;;;;;;;-142.57;80.33;56064.75;5032329;28;20038;-78
2024/01/23 10:29:58;;;;;;;68.60;23.35;;;;;;;-142.57;78.94;56117.28;5031924;28;20129;-79
2024/01/23 10:32:23;;;;;;;66.05;22.77;;;;;;;-142.57;75.99;56163.75;5032244;28;20079;-78
2024/01/23 10:34:53;;;;;;;85.78;23.30;;;;;;;-142.57;70.79;56117.28;5030975;28;20034;-79
2024/01/23 10:37:22;;;;;;;37.05;19.88;;;;;;;-142.57;63.64;56105.16;5030572;28;20033;-78
2024/01/23 10:39:51;;;;;;;72.13;19.80;;;;;;;-142.57;64.05;56139.50;5029550;28;20029;-79
2024/01/23 10:42:20;;;;;;;47.47;19.38;;;;;;;-142.57;62.29;56153.66;5031307;28;20026;-79
2024/01/23 10:44:50;;;;;;;41.70;19.85;;;;;;;-142.57;62.21;56133.44;5031573;28;20033;-79
2024/01/23 10:47:16;;;;;;;53.10;20.38;;;;;;;-142.57;63.28;56145.56;5033683;28;20032;-77
2024/01/23 10:49:43;;;;;;;104.07;23.42;;;;;;;-142.57;64.54;56151.63;5034837;28;20041;-80
2024/01/23 10:52:11;;;;;;;39.00;20.40;;;;;;;-142.57;63.75;56145.56;5033449;28;20029;-78
2024/01/23 10:54:43;;;;;;;48.72;19.67;;;;;;;-142.57;64.46;56190.03;5028149;28;20078;-79
2024/01/23 10:57:12;;;;;;;120.30;24.25;;;;;;;-142.57;64.81;56228.41;5033324;28;20044;-81
2024/01/23 10:59:39;;;;;;;41.03;18.90;;;;;;;-142.57;61.79;56194.06;5032767;28;20475;-78
2024/01/23 11:02:22;;;;;;;41.65;17.90;;;;;;;-142.57;56.25;56222.34;5024278;28;20037;-79
2024/01/23 11:04:50;;;;;;;55.95;17.40;;;;;;;-142.57;56.27;56224.38;5033857;28;20044;-78
2024/01/23 11:07:22;;;;;;;43.10;18.33;;;;;;;-142.57;56.75;56262.78;5034373;28;20483;-78